Maiduguri, Nigeria
Current Conditions -  °F | °C
As of 6:00 PM on Friday 21 Nov 2014 (Local Time) from FTTJ Reporting Station
Clear Clear  
Wind Chill: 86°   Ceiling: Unl
Heat Index: 86°   Visibility: 5mi
Dew Point: 23°   Wind: 8mph
Humidity: 10%   Direction: 340°NNW
Pressure: 29.85"   Gusts: NA
Location:  11.85°N, 13.16°E
Report Text: FTTJ 211700Z 34007KT 8000 NSC 30/M05 Q1011 NOSIG
Loading
Personal Weather Stations






























Interactive Weather Map New forecast layout! Learn more

10-Day Weather Forecast

Advertisements
Track Severe Weather on mobile